Data for 09/24/2016

Time Sea-Level Adjusted Pressure Absolute Pressure Temperature Relative Humidity Dew Point   
(mb) (inHg) (mb) (inHg) (C) (F) (%) (C) (F)
00:05 1017 30.03 846 24.98 9.4 49 79 6.1 42.9
00:10 1017 30.03 846 24.98 9.3 48.7 81 6.1 43
00:15 1017 30.03 846 24.98 9.1 48.4 80 5.9 42.6
00:20 1018 30.06 847 25.01 9 48.3 79 5.6 42.1
00:25 1018 30.06 847 25.01 8.9 48.1 79 5.4 41.8
00:30 1018 30.06 847 25.01 8.8 47.8 78 5.1 41.2
00:35 1018 30.06 847 25.01 8.8 47.8 77 5 41
00:40 1018 30.06 847 25.01 8.7 47.7 77 4.8 40.7
00:45 1018 30.06 847 25.01 8.7 47.6 77 4.9 40.7
00:50 1018 30.06 847 25.01 8.6 47.6 75 4.6 40.2
00:55 1018 30.06 847 25.01 8.7 47.7 75 4.6 40.3
01:00 1018 30.06 847 25.01 8.7 47.6 74 4.2 39.6
01:05 1018 30.06 847 25.01 8.7 47.6 71 3.7 38.7
01:10 1018 30.06 847 25.01 8.7 47.7 70 3.7 38.6
01:15 1018 30.06 847 25.01 8.8 47.8 70 3.6 38.4
01:20 1018 30.06 847 25.01 8.8 47.8 70 3.7 38.6
01:25 1018 30.06 847 25.01 8.7 47.7 71 3.7 38.7
01:30 1018 30.06 847 25.01 8.7 47.7 71 3.7 38.6
01:35 1018 30.06 847 25.01 8.7 47.7 69 3.4 38.1
01:40 1018 30.06 847 25.01 8.8 47.8 69 3.5 38.3
01:45 1018 30.06 847 25.01 8.8 47.8 69 3.4 38.2
01:50 1018 30.06 847 25.01 8.8 47.8 70 3.6 38.5
01:55 1018 30.06 847 25.01 8.7 47.7 71 3.8 38.8
02:00 1018 30.06 847 25.01 8.6 47.6 72 3.8 38.9
02:05 1018 30.06 847 25.01 8.5 47.4 72 3.9 38.9
02:10 1018 30.06 847 25.01 8.4 47.1 74 4 39.2
02:15 1018 30.06 847 25.01 8.2 46.7 76 4.2 39.5
02:20 1018 30.06 847 25.01 7.9 46.2 77 4 39.3
02:25 1018 30.06 847 25.01 7.8 46 75 3.7 38.6
02:30 1018 30.06 847 25.01 8 46.3 73 3.3 38
02:35 1018 30.06 847 25.01 8.2 46.7 71 3.2 37.8
02:40 1018 30.06 848 25.04 8.3 47 69 3.1 37.6
02:45 1018 30.06 848 25.04 8.4 47.1 69 3.1 37.5
02:50 1018 30.06 848 25.04 8.4 47.1 68 3 37.4
02:55 1018 30.06 848 25.04 8.4 47.1 68 2.9 37.1
03:00 1018 30.06 848 25.04 8.4 47.1 70 3.2 37.7
03:05 1018 30.06 848 25.04 8.3 47 70 3.3 37.9
03:10 1018 30.06 848 25.04 8.3 47 69 3 37.3
03:15 1018 30.06 848 25.04 8.4 47.1 70 3.2 37.8
03:20 1018 30.06 847 25.01 8.3 47 71 3.4 38.1
03:25 1018 30.06 848 25.04 8.2 46.8 72 3.4 38.2
03:30 1018 30.06 848 25.04 8.2 46.7 72 3.3 38
03:35 1018 30.06 848 25.04 8.1 46.6 71 3.2 37.8
03:40 1018 30.06 848 25.04 8.1 46.6 71 3.2 37.8
03:45 1018 30.06 848 25.04 8.1 46.5 71 3.2 37.8
03:50 1019 30.09 848 25.04 8 46.4 71 3.1 37.6
03:55 1019 30.09 848 25.04 8 46.3 72 3.1 37.7
04:00 1019 30.09 848 25.04 7.9 46.1 72 3.2 37.7
04:05 1019 30.09 848 25.04 7.8 46 73 3.2 37.8
04:10 1019 30.09 848 25.04 7.7 45.9 73 3.2 37.8
04:15 1019 30.09 848 25.04 7.7 45.8 73 3.2 37.8
04:20 1019 30.09 848 25.04 7.6 45.8 73 3.2 37.7
04:25 1019 30.09 848 25.04 7.6 45.7 73 3.2 37.8
04:30 1019 30.09 848 25.04 7.7 45.8 74 3.4 38
04:35 1019 30.09 848 25.04 7.6 45.7 75 3.4 38.1
04:40 1019 30.09 848 25.04 7.7 45.8 75 3.6 38.4
04:45 1019 30.09 848 25.04 7.7 45.8 76 3.6 38.6
04:50 1019 30.09 848 25.04 7.7 45.8 76 3.6 38.5
04:55 1019 30.09 848 25.04 7.7 45.8 75 3.6 38.5
05:00 1019 30.09 848 25.04 7.7 45.8 75 3.5 38.3
05:05 1019 30.09 848 25.04 7.7 45.8 74 3.4 38.1
05:10 1019 30.09 848 25.04 7.7 45.9 73 3.2 37.7
05:15 1019 30.09 848 25.04 7.7 45.9 74 3.3 38
05:20 1019 30.09 848 25.04 7.7 45.9 74 3.4 38.1
05:25 1019 30.09 848 25.04 7.7 45.9 74 3.4 38.2
05:30 1019 30.09 848 25.04 7.7 45.8 74 3.4 38.2
05:35 1019 30.09 849 25.07 7.5 45.4 78 4 39.2
05:40 1019 30.09 849 25.07 7.2 44.9 78 3.5 38.3
05:45 1019 30.09 848 25.04 7.2 44.9 78 3.5 38.4
05:50 1019 30.09 848 25.04 7.2 45 78 3.7 38.7
05:55 1019 30.09 848 25.04 7.3 45.1 76 3.2 37.8
06:00 1019 30.09 848 25.04 7.4 45.4 76 3.5 38.3
06:05 1019 30.09 848 25.04 7.6 45.7 73 3.1 37.6
06:10 1019 30.09 848 25.04 7.8 46 72 3.1 37.6
06:15 1019 30.09 848 25.04 7.9 46.1 71 2.9 37.2
06:20 1019 30.09 848 25.04 7.9 46.3 70 2.8 37.1
06:25 1019 30.09 848 25.04 8 46.4 69 2.7 36.9
06:30 1019 30.09 848 25.04 8.1 46.5 69 2.7 36.9
06:35 1019 30.09 848 25.04 8.1 46.5 69 2.7 36.8
06:40 1019 30.09 848 25.04 8.2 46.7 67 2.5 36.5
06:45 1019 30.09 848 25.04 8.2 46.8 67 2.4 36.4
06:50 1019 30.09 849 25.07 8.2 46.8 67 2.5 36.5
06:55 1020 30.12 849 25.07 8.2 46.8 68 2.6 36.7
07:00 1020 30.12 849 25.07 8.2 46.8 66 2.3 36.1
07:05 1020 30.12 849 25.07 8.4 47.1 66 2.4 36.3
07:10 1020 30.12 849 25.07 8.5 47.3 65 2.3 36.2
07:15 1020 30.12 849 25.07 8.6 47.4 66 2.5 36.5
07:20 1020 30.12 849 25.07 8.6 47.4 65 2.3 36.1
07:25 1020 30.12 849 25.07 8.6 47.5 65 2.4 36.3
07:30 1020 30.12 849 25.07 8.6 47.5 65 2.4 36.4
07:35 1020 30.12 849 25.07 8.6 47.4 65 2.4 36.3
07:40 1020 30.12 850 25.1 8.6 47.4 65 2.5 36.5
07:45 1020 30.12 850 25.1 8.5 47.4 65 2.4 36.3
07:50 1021 30.15 850 25.1 8.5 47.4 65 2.3 36.1
07:55 1021 30.15 850 25.1 8.5 47.4 64 2.2 35.9
08:00 1021 30.15 850 25.1 8.5 47.3 64 2 35.7
08:05 1021 30.15 850 25.1 8.5 47.3 64 2.2 35.9
08:10 1021 30.15 850 25.1 8.4 47.2 65 2.2 35.9
08:15 1021 30.15 850 25.1 8.4 47.1 64 2.1 35.7
08:20 1021 30.15 850 25.1 8.4 47.1 64 2 35.6
08:25 1021 30.15 850 25.1 8.4 47.1 64 1.9 35.5
08:30 1021 30.15 850 25.1 8.4 47.1 64 2 35.6
08:35 1021 30.15 850 25.1 8.4 47 64 1.9 35.4
08:40 1021 30.15 850 25.1 8.3 47 64 1.9 35.4
08:45 1021 30.15 850 25.1 8.3 47 64 1.9 35.4
08:50 1021 30.15 850 25.1 8.3 46.9 64 1.9 35.4
08:55 1021 30.15 850 25.1 8.2 46.8 64 1.8 35.3
09:00 1021 30.15 850 25.1 8.2 46.7 64 1.7 35.1
09:05 1021 30.15 850 25.1 8.1 46.7 64 1.7 35
09:10 1021 30.15 850 25.1 8.1 46.6 63 1.4 34.6
09:15 1021 30.15 850 25.1 8.1 46.7 61 1.1 34
09:20 1021 30.15 850 25.1 8.2 46.8 61 1.2 34.1
09:25 1021 30.15 850 25.1 8.2 46.8 61 1.3 34.3
09:30 1021 30.15 850 25.1 8.3 46.9 61 1.2 34.2
09:35 1021 30.15 851 25.13 8.3 46.9 61 1.3 34.4
09:40 1021 30.15 851 25.13 8.3 46.9 61 1.3 34.4
09:45 1022 30.18 851 25.13 8.3 46.9 62 1.4 34.4
09:50 1022 30.18 851 25.13 8.3 46.9 62 1.4 34.6
09:55 1022 30.18 851 25.13 8.3 47 62 1.5 34.7
10:00 1022 30.18 851 25.13 8.4 47 63 1.7 35
10:05 1022 30.18 851 25.13 8.4 47.2 63 1.7 35.1
10:10 1022 30.18 851 25.13 8.4 47.2 62 1.6 35
10:15 1022 30.18 851 25.13 8.4 47.2 62 1.5 34.8
10:20 1022 30.18 851 25.13 8.5 47.2 61 1.4 34.6
10:25 1022 30.18 851 25.13 8.5 47.2 62 1.6 34.9
10:30 1022 30.18 851 25.13 8.4 47.2 62 1.5 34.7
10:35 1022 30.18 851 25.13 8.5 47.3 62 1.5 34.8
10:40 1022 30.18 851 25.13 8.5 47.3 61 1.5 34.8
10:45 1022 30.18 851 25.13 8.6 47.4 62 1.7 35.1
10:50 1022 30.18 851 25.13 8.7 47.6 60 1.5 34.6
10:55 1022 30.18 851 25.13 8.7 47.7 60 1.4 34.5
11:00 1022 30.18 851 25.13 8.8 47.9 60 1.4 34.6
11:05 1022 30.18 851 25.13 8.9 48.1 59 1.4 34.4
11:10 1022 30.18 851 25.13 9 48.2 58 1.3 34.3
11:15 1022 30.18 851 25.13 9.1 48.4 58 1.3 34.3
11:20 1022 30.18 851 25.13 9.2 48.6 58 1.3 34.4
11:25 1022 30.18 851 25.13 9.3 48.7 58 1.5 34.7
11:30 1022 30.18 851 25.13 9.3 48.8 57 1.2 34.2
11:35 1022 30.18 851 25.13 9.4 48.9 56 1 33.8
11:40 1022 30.18 851 25.13 9.4 48.9 56 1 33.8
11:45 1022 30.18 851 25.13 9.4 49 55 0.8 33.4
11:50 1022 30.18 851 25.13 9.5 49.1 55 1 33.8
11:55 1022 30.18 851 25.13 9.5 49.2 55 1 33.8
12:00 1022 30.18 852 25.16 9.7 49.4 54 1 33.7
12:05 1022 30.18 852 25.16 9.7 49.5 54 1 33.8
12:10 1022 30.18 852 25.16 9.8 49.6 54 1 33.8
12:15 1022 30.18 852 25.16 9.9 49.7 53 0.8 33.5
12:20 1022 30.18 852 25.16 9.9 49.9 51 0.4 32.8
12:25 1022 30.18 852 25.16 10.1 50.2 50 0.3 32.6
12:30 1022 30.18 852 25.16 10.4 50.7 49 0 32.1
12:35 1022 30.18 852 25.16 10.6 51.1 48 0.2 32.4
12:40 1022 30.18 852 25.16 10.7 51.3 48 0.1 32.3
12:45 1022 30.18 852 25.16 10.8 51.4 46 -0.3 31.4
12:50 1022 30.18 852 25.16 10.9 51.5 46 -0.2 31.6
12:55 1022 30.18 852 25.16 11 51.7 44 -0.6 30.9
13:00 1022 30.18 852 25.16 11 51.8 45 -0.5 31
13:05 1022 30.18 851 25.13 11.2 52.1 43 -1 30.3
13:10 1022 30.18 851 25.13 11.7 53.1 40 -1.3 29.7
13:15 1022 30.18 851 25.13 11.9 53.5 40 -1 30.1
13:20 1022 30.18 851 25.13 12.1 53.9 40 -0.9 30.4
13:25 1022 30.18 851 25.13 12 53.6 38 -1.9 28.6
13:30 1022 30.18 851 25.13 12.4 54.3 38 -1.5 29.3
13:35 1022 30.18 851 25.13 12.4 54.4 37 -1.8 28.7
13:40 1022 30.18 851 25.13 12.2 54 38 -1.7 28.9
13:45 1022 30.18 851 25.13 12 53.6 38 -2 28.5
13:50 1022 30.18 851 25.13 12 53.7 37 -2.1 28.1
13:55 1022 30.18 851 25.13 12.2 53.9 37 -2.1 28.3
14:00 1022 30.18 851 25.13 12.2 54 37 -2.2 28.1
14:05 1022 30.18 851 25.13 12.3 54.1 36 -2.2 28
14:10 1022 30.18 851 25.13 12.4 54.2 37 -1.9 28.6
14:15 1022 30.18 851 25.13 12.2 54 37 -2 28.4
14:20 1022 30.18 852 25.16 12.2 54 37 -1.8 28.7
14:25 1022 30.18 852 25.16 12.3 54.1 39 -1.2 29.8
14:30 1022 30.18 852 25.16 12.4 54.2 40 -0.9 30.4
14:35 1023 30.21 852 25.16 12.2 54 40 -0.8 30.6
14:40 1023 30.21 852 25.16 12.2 53.9 43 0 32
14:45 1023 30.21 852 25.16 12.2 54 43 -0 31.9
14:50 1023 30.21 852 25.16 12.5 54.4 41 -0.5 31.1
14:55 1023 30.21 852 25.16 12.3 54.1 41 -0.7 30.8
15:00 1023 30.21 852 25.16 12.5 54.4 39 -0.9 30.3
15:05 1023 30.21 852 25.16 12.9 55.2 37 -1.4 29.5
15:10 1023 30.21 852 25.16 13.4 56 37 -0.9 30.3
15:15 1023 30.21 852 25.16 13.7 56.7 36 -1.1 30
15:20 1023 30.21 852 25.16 13.3 55.9 35 -1.8 28.8
15:25 1023 30.21 852 25.16 13 55.5 33 -2.6 27.2
15:30 1023 30.21 852 25.16 12.8 55.1 35 -2.4 27.8
15:35 1023 30.21 852 25.16 12.8 55 35 -2.3 27.9
15:40 1023 30.21 852 25.16 12.9 55.2 35 -2.1 28.1
15:45 1023 30.21 852 25.16 13 55.3 36 -1.6 29.1
15:50 1023 30.21 853 25.19 13.2 55.8 39 -0.2 31.6
15:55 1023 30.21 853 25.19 13.5 56.3 41 0.5 32.9
16:00 1023 30.21 853 25.19 13 55.4 41 0.2 32.4
16:05 1024 30.24 853 25.19 12.9 55.1 37 -1.5 29.2
16:10 1024 30.24 853 25.19 12.9 55.3 37 -1.3 29.7
16:15 1024 30.24 853 25.19 12.8 55 39 -0.8 30.6
16:20 1024 30.24 853 25.19 13.3 56 38 -0.7 30.8
16:25 1024 30.24 853 25.19 13.9 56.9 37 -0.5 31.1
16:30 1024 30.24 853 25.19 13.4 56.1 39 -0 31.9
16:35 1024 30.24 853 25.19 13 55.3 39 -0.5 31.1
16:40 1024 30.24 853 25.19 13.6 56.4 37 -0.8 30.6
16:45 1024 30.24 853 25.19 14.1 57.4 36 -0.8 30.5
16:50 1024 30.24 853 25.19 14.8 58.6 34 -0.7 30.7
16:55 1024 30.24 853 25.19 15 59.1 32 -1.2 29.8
17:00 1024 30.24 854 25.22 14.5 58.1 36 -0.1 31.8
17:05 1024 30.24 854 25.22 13.9 57 38 -0.1 31.8
17:10 1024 30.24 854 25.22 13.5 56.4 39 -0.1 31.8
17:15 1024 30.24 854 25.22 13.5 56.2 37 -0.7 30.7
17:20 1024 30.24 854 25.22 13.4 56.1 39 -0.4 31.4
17:25 1024 30.24 854 25.22 14 57.2 35 -1 30.2
17:30 1025 30.27 854 25.22 14.3 57.7 34 -1.2 29.9
17:35 1025 30.27 854 25.22 14.4 57.8 32 -2.2 28
17:40 1025 30.27 854 25.22 14.5 58 30 -2.7 27.1
17:45 1025 30.27 854 25.22 14.5 58.2 30 -2.8 27
17:50 1025 30.27 854 25.22 14.5 58.1 31 -2.4 27.8
17:55 1025 30.27 854 25.22 14.4 58 30 -2.7 27.1
18:00 1025 30.27 854 25.22 14.3 57.8 31 -2.6 27.4
18:05 1025 30.27 854 25.22 14.4 57.9 31 -2.6 27.3
18:10 1025 30.27 854 25.22 14.1 57.3 31 -2.8 27
18:15 1025 30.27 854 25.22 14 57.3 31 -2.7 27.2
18:20 1025 30.27 854 25.22 13.9 56.9 31 -3 26.6
18:25 1025 30.27 854 25.22 13.9 57.1 30 -3.2 26.2
18:30 1025 30.27 854 25.22 13.6 56.5 32 -2.8 27
18:35 1025 30.27 854 25.22 13.3 55.9 32 -2.9 26.7
18:40 1025 30.27 854 25.22 13.2 55.7 34 -2.5 27.6
18:45 1025 30.27 854 25.22 13 55.4 34 -2.3 27.8
18:50 1025 30.27 854 25.22 12.9 55.1 35 -2.2 28
18:55 1025 30.27 855 25.25 12.8 55 35 -2.3 27.9
19:00 1025 30.27 855 25.25 12.7 54.8 35 -2.5 27.5
19:05 1025 30.27 855 25.25 12.5 54.6 36 -2.2 28
19:10 1025 30.27 855 25.25 12.4 54.4 36 -2 28.3
19:15 1025 30.27 855 25.25 12.3 54.1 38 -1.8 28.8
19:20 1026 30.3 855 25.25 12.1 53.8 38 -1.7 29
19:25 1026 30.3 855 25.25 11.9 53.5 39 -1.5 29.3
19:30 1026 30.3 855 25.25 11.8 53.3 40 -1.4 29.5
19:35 1025 30.27 855 25.25 11.7 53.1 40 -1.5 29.3
19:40 1026 30.3 855 25.25 11.6 52.9 41 -1.2 29.9
19:45 1026 30.3 855 25.25 11.4 52.5 42 -1 30.2
19:50 1026 30.3 855 25.25 11.2 52.2 43 -1 30.3
19:55 1026 30.3 855 25.25 11 51.9 42 -1.4 29.4
20:00 1026 30.3 855 25.25 10.8 51.5 43 -1.2 29.8
20:05 1026 30.3 856 25.28 10.6 51.2 43 -1.3 29.7
20:10 1027 30.33 856 25.28 10.4 50.6 44 -1.3 29.7
20:15 1027 30.33 856 25.28 10.1 50.1 45 -1.4 29.5
20:20 1027 30.33 856 25.28 9.8 49.7 46 -1.2 29.9
20:25 1027 30.33 856 25.28 9.5 49 50 -0.3 31.5
20:30 1027 30.33 856 25.28 8.4 47.2 53 -0.6 30.9
20:35 1027 30.33 856 25.28 8.3 46.9 53 -0.8 30.5
20:40 1027 30.33 856 25.28 8.4 47.1 50 -1.3 29.6
20:45 1027 30.33 856 25.28 8.4 47.2 51 -1.2 29.8
20:50 1027 30.33 856 25.28 8.4 47.2 51 -1.1 30.1
20:55 1027 30.33 856 25.28 8.4 47.1 51 -1.2 29.8
21:00 1027 30.33 856 25.28 8.5 47.3 51 -1.2 29.9
21:05 1027 30.33 856 25.28 8.4 47.1 51 -1.2 29.8
21:10 1027 30.33 856 25.28 8.4 47 50 -1.3 29.7
21:15 1027 30.33 856 25.28 8.2 46.8 52 -1 30.3
21:20 1027 30.33 857 25.31 7.9 46.2 55 -0.7 30.8
21:25 1027 30.33 857 25.31 7.6 45.7 56 -0.5 31.1
21:30 1027 30.33 857 25.31 7.3 45.2 58 -0.3 31.5
21:35 1028 30.36 857 25.31 7 44.7 60 -0.1 31.7
21:40 1028 30.36 857 25.31 6.9 44.4 60 -0.2 31.6
21:45 1028 30.36 857 25.31 6.8 44.2 61 -0.2 31.7
21:50 1028 30.36 857 25.31 6.7 44.1 60 -0.5 31.1
21:55 1028 30.36 857 25.31 6.8 44.2 60 -0.5 31
22:00 1028 30.36 857 25.31 6.7 44 59 -0.7 30.7
22:05 1028 30.36 857 25.31 6.7 44 61 -0.4 31.4
22:10 1028 30.36 858 25.34 6.5 43.7 62 -0.3 31.5
22:15 1028 30.36 857 25.31 6.4 43.5 62 -0.4 31.2
22:20 1028 30.36 857 25.31 6.4 43.4 61 -0.5 31.1
22:25 1028 30.36 857 25.31 6.4 43.6 61 -0.5 31.1
22:30 1028 30.36 857 25.31 6.3 43.4 61 -0.7 30.8
22:35 1028 30.36 857 25.31 6.5 43.7 59 -0.9 30.4
22:40 1028 30.36 857 25.31 6.6 43.9 60 -0.7 30.8
22:45 1028 30.36 857 25.31 6.5 43.7 60 -0.8 30.6
22:50 1028 30.36 857 25.31 6.6 43.8 59 -0.8 30.5
22:55 1028 30.36 857 25.31 6.5 43.8 60 -0.7 30.8
23:00 1028 30.36 857 25.31 6.4 43.5 60 -0.7 30.7
23:05 1028 30.36 858 25.34 6.3 43.4 61 -0.6 30.9
23:10 1028 30.36 858 25.34 6.2 43.2 62 -0.5 31
23:15 1028 30.36 858 25.34 6.2 43.1 62 -0.5 31.1
23:20 1029 30.39 858 25.34 6.1 43 62 -0.5 31.1
23:25 1028 30.36 858 25.34 6 42.8 63 -0.5 31.1
23:30 1028 30.36 858 25.34 5.9 42.6 63 -0.7 30.8
23:35 1028 30.36 858 25.34 5.9 42.6 63 -0.7 30.8
23:40 1028 30.36 858 25.34 6 42.7 62 -0.7 30.7
23:45 1028 30.36 858 25.34 5.8 42.5 62 -0.8 30.5
23:50 1028 30.36 858 25.34 5.8 42.4 62 -0.9 30.3
23:55 1028 30.36 858 25.34 5.7 42.2 64 -0.6 30.9
24:00 1028 30.36 858 25.34 5.4 41.8 64 -0.8 30.6